Time;durP1;ratioP1;P1;durP2;ratioP2;P2;SDS_P1;SDS_P2;PMS_P1;PMS_P2;Temp;Humidity;BMP_temperature;BMP_pressure;BME280_temperature;BME280_humidity;BME280_pressure;Samples;Min_cycle;Max_cycle;Signal;HPM_P1;HPM_P2
2024/01/06 00:01:12;;;;;;;31.30;14.90;;;2.70;99.90;;;;;;5074367;28;20048;-73
2024/01/06 00:03:37;;;;;;;25.40;14.73;;;2.70;99.90;;;;;;5075015;28;20032;-73
2024/01/06 00:06:03;;;;;;;24.35;13.02;;;2.40;99.90;;;;;;5074885;28;20040;-73
2024/01/06 00:08:29;;;;;;;27.67;13.18;;;2.80;99.90;;;;;;5074585;28;20036;-73
2024/01/06 00:10:55;;;;;;;24.75;13.75;;;2.50;99.90;;;;;;5074793;28;20119;-74
2024/01/06 00:13:20;;;;;;;23.67;14.10;;;2.50;99.90;;;;;;5074844;28;20052;-74
2024/01/06 00:15:46;;;;;;;26.17;14.38;;;2.50;99.90;;;;;;5075066;28;20044;-73
2024/01/06 00:18:12;;;;;;;24.02;13.73;;;2.40;99.90;;;;;;5074429;28;20087;-73
2024/01/06 00:20:38;;;;;;;25.55;14.32;;;2.30;99.90;;;;;;5074344;28;20396;-73
2024/01/06 00:23:03;;;;;;;26.90;14.95;;;2.20;99.90;;;;;;5074542;28;20048;-74
2024/01/06 00:25:29;;;;;;;25.00;13.55;;;2.60;99.90;;;;;;5074814;28;20036;-74
2024/01/06 00:27:55;;;;;;;23.17;12.77;;;2.50;99.90;;;;;;5074309;28;20042;-75
2024/01/06 00:30:20;;;;;;;22.02;13.30;;;2.20;99.90;;;;;;5074471;28;20048;-74
2024/01/06 00:32:46;;;;;;;25.30;13.85;;;2.40;99.90;;;;;;5074433;28;20415;-75
2024/01/06 00:35:11;;;;;;;22.55;13.32;;;2.50;99.90;;;;;;5074361;28;20135;-75
2024/01/06 00:37:37;;;;;;;20.17;12.85;;;2.40;99.90;;;;;;5074191;28;20050;-75
2024/01/06 00:40:04;;;;;;;22.35;12.60;;;2.20;99.90;;;;;;5074553;28;20039;-74
2024/01/06 00:42:30;;;;;;;21.15;12.35;;;2.20;99.90;;;;;;5074175;28;20072;-74
2024/01/06 00:44:55;;;;;;;22.95;13.43;;;2.20;99.90;;;;;;5074127;28;20079;-74
2024/01/06 00:47:23;;;;;;;19.48;12.40;;;2.50;99.90;;;;;;5073669;28;20036;-75
2024/01/06 00:49:49;;;;;;;24.08;12.52;;;2.30;99.90;;;;;;5074233;28;20052;-75
2024/01/06 00:52:15;;;;;;;21.42;12.57;;;2.50;99.90;;;;;;5073964;28;20582;-74
2024/01/06 00:54:40;;;;;;;20.58;12.32;;;2.20;99.90;;;;;;5074359;28;20047;-74
2024/01/06 00:57:06;;;;;;;19.50;12.30;;;2.30;99.90;;;;;;5073913;28;20568;-74
2024/01/06 00:59:32;;;;;;;24.25;14.25;;;2.30;99.90;;;;;;5073895;28;20042;-74
2024/01/06 01:01:57;;;;;;;21.25;13.00;;;2.10;99.90;;;;;;5057067;28;20407;-74
2024/01/06 01:04:23;;;;;;;19.85;12.25;;;2.00;99.90;;;;;;5073780;28;20036;-74
2024/01/06 01:06:48;;;;;;;21.48;12.75;;;2.10;99.90;;;;;;5073858;28;20078;-75
2024/01/06 01:09:14;;;;;;;19.27;11.57;;;2.10;99.90;;;;;;5073580;28;20085;-74
2024/01/06 01:11:40;;;;;;;20.35;12.15;;;2.10;99.90;;;;;;5073903;28;20089;-75
2024/01/06 01:14:06;;;;;;;18.25;10.85;;;2.40;99.90;;;;;;5071717;28;20048;-75
2024/01/06 01:16:32;;;;;;;21.88;11.77;;;2.10;99.90;;;;;;5073537;28;20058;-75
2024/01/06 01:18:58;;;;;;;18.63;11.60;;;2.40;99.90;;;;;;5073442;28;20134;-75
2024/01/06 01:21:24;;;;;;;23.58;12.95;;;2.10;99.90;;;;;;5073623;28;20036;-75
2024/01/06 01:23:49;;;;;;;24.63;11.98;;;2.20;99.90;;;;;;5073626;28;20579;-75
2024/01/06 01:26:15;;;;;;;21.08;11.30;;;2.00;99.90;;;;;;5056668;28;20043;-74
2024/01/06 01:28:40;;;;;;;20.55;11.48;;;2.00;99.90;;;;;;5073575;28;20477;-75
2024/01/06 01:31:06;;;;;;;16.48;10.32;;;1.90;99.90;;;;;;5073563;28;20119;-74
2024/01/06 01:33:32;;;;;;;16.10;10.40;;;2.30;99.90;;;;;;5073751;28;20043;-74
2024/01/06 01:35:57;;;;;;;19.73;11.07;;;1.90;99.90;;;;;;5073658;28;20032;-75
2024/01/06 01:38:23;;;;;;;15.43;10.00;;;2.00;99.90;;;;;;5073202;28;20039;-75
2024/01/06 01:40:49;;;;;;;16.50;10.63;;;1.90;99.90;;;;;;5073348;28;20047;-74
2024/01/06 01:43:21;;;;;;;17.33;10.75;;;1.90;99.90;;;;;;5073410;28;20078;-74
2024/01/06 01:45:56;;;;;;;16.38;10.38;;;1.80;99.90;;;;;;5073401;28;20039;-74
2024/01/06 01:48:23;;;;;;;18.77;11.15;;;1.90;99.90;;;;;;5073108;28;20119;-75
2024/01/06 01:50:49;;;;;;;19.20;11.45;;;1.80;99.90;;;;;;5073487;28;20156;-75
2024/01/06 01:53:14;;;;;;;20.65;11.25;;;2.00;99.90;;;;;;5073675;28;20075;-75
2024/01/06 01:55:44;;;;;;;26.42;14.50;;;2.00;99.90;;;;;;5073370;28;20040;-75
2024/01/06 01:58:11;;;;;;;23.48;13.00;;;2.20;99.90;;;;;;5073059;28;20543;-74
2024/01/06 02:00:37;;;;;;;20.77;11.48;;;2.20;99.90;;;;;;5073003;28;20040;-74
2024/01/06 02:03:05;;;;;;;17.75;10.52;;;2.20;99.90;;;;;;5073253;28;20036;-75
2024/01/06 02:05:30;;;;;;;21.38;11.85;;;2.10;99.90;;;;;;5056389;28;20033;-75
2024/01/06 02:07:56;;;;;;;18.85;11.90;;;2.00;99.90;;;;;;5073258;28;20040;-75
2024/01/06 02:10:22;;;;;;;21.25;11.07;;;1.90;99.90;;;;;;5056513;28;20040;-74
2024/01/06 02:12:48;;;;;;;19.80;12.23;;;2.10;99.90;;;;;;5056689;28;20098;-75
2024/01/06 02:15:14;;;;;;;20.02;9.85;;;1.80;99.90;;;;;;5073207;28;20044;-75
2024/01/06 02:17:40;;;;;;;17.27;10.60;;;2.10;99.90;;;;;;5072899;28;20051;-75
2024/01/06 02:20:08;;;;;;;19.15;11.43;;;2.10;99.90;;;;;;5056215;28;20036;-75
2024/01/06 02:22:38;;;;;;;19.25;11.07;;;1.90;99.90;;;;;;5073111;28;20446;-74
2024/01/06 02:25:12;;;;;;;19.70;11.30;;;2.00;99.90;;;;;;5074525;28;20071;-75
2024/01/06 02:27:39;;;;;;;19.83;10.95;;;1.70;99.90;;;;;;5060097;28;20075;-74
2024/01/06 02:30:06;;;;;;;18.90;11.30;;;1.80;99.90;;;;;;5060384;28;20051;-75
2024/01/06 02:32:32;;;;;;;26.30;13.82;;;2.00;99.90;;;;;;5059980;28;20054;-75
2024/01/06 02:34:57;;;;;;;26.80;14.73;;;1.70;99.90;;;;;;5077036;28;20039;-75
2024/01/06 02:37:23;;;;;;;24.33;12.95;;;1.90;99.90;;;;;;5076708;28;20127;-75
2024/01/06 02:39:48;;;;;;;26.83;13.80;;;1.90;99.90;;;;;;5076486;28;20036;-75
2024/01/06 02:42:14;;;;;;;24.27;13.10;;;2.00;99.90;;;;;;5059827;28;20032;-75
2024/01/06 02:44:40;;;;;;;26.17;13.50;;;2.10;99.90;;;;;;5076343;28;20040;-75
2024/01/06 02:47:05;;;;;;;21.42;12.38;;;1.90;99.90;;;;;;5075882;28;20468;-75
2024/01/06 02:49:31;;;;;;;22.60;12.38;;;2.20;99.90;;;;;;5076129;28;20059;-74
2024/01/06 02:51:56;;;;;;;23.45;13.57;;;1.90;99.90;;;;;;5076418;28;20067;-75
2024/01/06 02:54:22;;;;;;;20.42;12.18;;;2.10;99.90;;;;;;5076706;28;20048;-74
2024/01/06 02:56:48;;;;;;;23.70;14.57;;;1.90;99.90;;;;;;5059559;28;20040;-74
2024/01/06 02:59:13;;;;;;;25.15;14.80;;;2.00;99.90;;;;;;5076151;28;20036;-74
2024/01/06 03:01:39;;;;;;;22.85;13.00;;;1.90;99.90;;;;;;5083612;22;20041;-71
2024/01/06 03:04:05;;;;;;;21.85;11.48;;;1.80;99.90;;;;;;5057284;28;20084;-71
2024/01/06 03:06:31;;;;;;;18.17;11.55;;;2.10;99.90;;;;;;5040285;28;20042;-71
2024/01/06 03:08:56;;;;;;;20.08;11.45;;;2.00;99.90;;;;;;5055416;28;20049;-70
2024/01/06 03:11:22;;;;;;;21.75;11.77;;;1.80;99.90;;;;;;5037710;28;20052;-70
2024/01/06 03:13:48;;;;;;;19.48;11.05;;;1.80;99.90;;;;;;5056156;28;20033;-70
2024/01/06 03:16:13;;;;;;;21.10;10.80;;;1.80;99.90;;;;;;5038315;28;20049;-70
2024/01/06 03:18:39;;;;;;;18.35;11.23;;;1.60;99.90;;;;;;5056187;28;20033;-71
2024/01/06 03:21:04;;;;;;;18.77;9.75;;;1.60;99.90;;;;;;5038193;28;20041;-70
2024/01/06 03:23:30;;;;;;;17.02;10.48;;;1.60;99.90;;;;;;5037995;28;20068;-70
2024/01/06 03:25:56;;;;;;;14.57;9.07;;;1.80;99.90;;;;;;5038162;28;20115;-70
2024/01/06 03:28:21;;;;;;;16.30;9.95;;;1.90;99.90;;;;;;5055677;28;20083;-71
2024/01/06 03:30:47;;;;;;;16.88;9.43;;;1.90;99.90;;;;;;5039094;28;20048;-70
2024/01/06 03:33:13;;;;;;;18.25;11.00;;;1.60;99.90;;;;;;5055880;28;20052;-71
2024/01/06 03:35:38;;;;;;;15.10;10.70;;;1.90;99.90;;;;;;5055569;28;20045;-71
2024/01/06 03:38:04;;;;;;;19.42;10.02;;;1.80;99.90;;;;;;5037111;28;20044;-70
2024/01/06 03:40:29;;;;;;;16.40;9.70;;;1.60;99.90;;;;;;5056035;28;20048;-71
2024/01/06 03:42:55;;;;;;;24.88;12.27;;;1.60;99.90;;;;;;5037818;28;20073;-71
2024/01/06 03:45:21;;;;;;;19.33;10.00;;;2.00;99.90;;;;;;5038262;28;20036;-71
2024/01/06 03:47:46;;;;;;;22.77;10.93;;;1.90;99.90;;;;;;5038087;28;20049;-70
2024/01/06 03:50:12;;;;;;;22.10;10.07;;;1.50;99.90;;;;;;5056260;28;20037;-71
2024/01/06 03:52:38;;;;;;;18.40;10.63;;;1.50;99.90;;;;;;5021358;28;20488;-70
2024/01/06 03:55:05;;;;;;;19.52;9.85;;;1.60;99.90;;;;;;5054492;28;20040;-70
2024/01/06 03:57:31;;;;;;;23.17;11.15;;;1.70;99.90;;;;;;5036985;28;20041;-71
2024/01/06 03:59:57;;;;;;;25.52;11.50;;;1.70;99.90;;;;;;5038008;28;20171;-70
2024/01/06 04:02:23;;;;;;;21.50;10.18;;;1.50;99.90;;;;;;5054473;28;20044;-70
2024/01/06 04:04:49;;;;;;;18.25;10.50;;;1.50;99.90;;;;;;5020507;28;20037;-70
2024/01/06 04:07:15;;;;;;;16.55;10.70;;;1.60;99.90;;;;;;5054227;28;20041;-70
2024/01/06 04:09:43;;;;;;;14.82;9.60;;;1.50;99.90;;;;;;5055277;28;20036;-70
2024/01/06 04:12:08;;;;;;;16.23;8.80;;;1.80;99.90;;;;;;5020229;28;20045;-70
2024/01/06 04:14:34;;;;;;;16.02;9.40;;;1.70;99.90;;;;;;5054882;28;20563;-70
2024/01/06 04:17:00;;;;;;;13.60;8.90;;;1.50;99.90;;;;;;5055694;28;20041;-72
2024/01/06 04:19:25;;;;;;;20.00;10.25;;;1.60;99.90;;;;;;5055675;28;20048;-72
2024/01/06 04:21:51;;;;;;;16.30;9.75;;;1.60;99.90;;;;;;5055669;28;20036;-72
2024/01/06 04:24:16;;;;;;;24.33;11.68;;;1.80;99.90;;;;;;5037400;28;20044;-73
2024/01/06 04:26:44;;;;;;;20.25;11.45;;;1.80;99.90;;;;;;5054113;28;20163;-72
2024/01/06 04:29:11;;;;;;;23.17;12.43;;;1.70;99.90;;;;;;5035745;28;20053;-72
2024/01/06 04:31:37;;;;;;;19.73;11.30;;;1.80;99.90;;;;;;5036638;28;20044;-72
2024/01/06 04:34:03;;;;;;;17.15;10.25;;;1.60;99.90;;;;;;5054291;28;20052;-72
2024/01/06 04:36:29;;;;;;;19.45;10.60;;;1.90;99.90;;;;;;5036722;28;20289;-72
2024/01/06 04:38:54;;;;;;;19.45;10.00;;;1.60;99.90;;;;;;5035801;28;20049;-72
2024/01/06 04:41:21;;;;;;;18.67;10.73;;;1.60;99.90;;;;;;5054199;28;20091;-72
2024/01/06 04:43:47;;;;;;;20.20;10.25;;;1.90;99.90;;;;;;5036438;28;20047;-72
2024/01/06 04:46:12;;;;;;;18.80;9.65;;;1.60;99.90;;;;;;5038371;28;20043;-73
2024/01/06 04:48:41;;;;;;;16.58;9.60;;;1.80;99.90;;;;;;5054293;28;20107;-72
2024/01/06 04:51:09;;;;;;;19.15;10.52;;;1.60;99.90;;;;;;5036267;28;20044;-72
2024/01/06 04:53:36;;;;;;;20.08;11.68;;;1.70;99.90;;;;;;5021393;28;20133;-73
2024/01/06 04:56:01;;;;;;;21.02;10.38;;;1.60;99.90;;;;;;5053986;28;20041;-73
2024/01/06 04:58:27;;;;;;;16.77;10.40;;;1.60;99.90;;;;;;5036457;28;20052;-73
2024/01/06 05:00:53;;;;;;;20.80;11.20;;;1.70;99.90;;;;;;5036503;28;20041;-72
2024/01/06 05:03:18;;;;;;;21.05;10.77;;;1.80;99.90;;;;;;5054297;28;20036;-73
2024/01/06 05:05:44;;;;;;;20.35;10.48;;;1.50;99.90;;;;;;5036188;28;20464;-73
2024/01/06 05:08:10;;;;;;;21.15;10.50;;;1.50;99.90;;;;;;5035858;28;20036;-72
2024/01/06 05:10:35;;;;;;;17.95;9.88;;;1.60;99.90;;;;;;5054488;28;20051;-72
2024/01/06 05:13:01;;;;;;;16.52;9.20;;;1.90;99.90;;;;;;5037327;28;20416;-73
2024/01/06 05:15:26;;;;;;;15.77;9.23;;;1.80;99.90;;;;;;5019337;28;20134;-72
2024/01/06 05:17:52;;;;;;;16.73;9.35;;;1.80;99.90;;;;;;5052532;28;20116;-72
2024/01/06 05:20:18;;;;;;;20.75;10.45;;;1.70;99.90;;;;;;5035610;28;20045;-72
2024/01/06 05:22:43;;;;;;;22.55;10.60;;;1.70;99.90;;;;;;5037712;28;20048;-72
2024/01/06 05:25:09;;;;;;;19.45;10.73;;;1.90;99.90;;;;;;5055440;28;20039;-73
2024/01/06 05:27:35;;;;;;;21.35;10.77;;;1.80;99.90;;;;;;5036172;28;20540;-73
2024/01/06 05:30:01;;;;;;;22.15;10.93;;;1.70;99.90;;;;;;5054591;28;20045;-73
2024/01/06 05:32:26;;;;;;;16.17;10.38;;;1.80;99.90;;;;;;5037577;28;20412;-71
2024/01/06 05:34:52;;;;;;;22.33;11.98;;;1.70;99.90;;;;;;5036153;28;20044;-71
2024/01/06 05:37:18;;;;;;;19.80;11.05;;;1.70;99.90;;;;;;5036217;28;20037;-70
2024/01/06 05:39:43;;;;;;;19.85;11.30;;;1.80;99.90;;;;;;5054237;28;20085;-73
2024/01/06 05:42:13;;;;;;;21.70;11.85;;;1.80;99.90;;;;;;5036642;28;20121;-73
2024/01/06 05:44:39;;;;;;;25.40;12.25;;;1.90;99.90;;;;;;5053077;28;20069;-72
2024/01/06 05:47:05;;;;;;;24.85;12.38;;;1.80;99.90;;;;;;5035410;28;20470;-72
2024/01/06 05:49:30;;;;;;;24.70;13.02;;;1.70;99.90;;;;;;5035620;28;20049;-73
2024/01/06 05:51:56;;;;;;;21.77;11.43;;;1.90;99.90;;;;;;5035956;28;20037;-73
2024/01/06 05:54:22;;;;;;;19.73;11.95;;;1.90;99.90;;;;;;5036045;28;20116;-73
2024/01/06 05:56:47;;;;;;;25.35;12.50;;;1.80;99.90;;;;;;5052952;28;20047;-73
2024/01/06 05:59:14;;;;;;;20.30;11.30;;;1.90;99.90;;;;;;5035285;28;20486;-73
2024/01/06 06:01:39;;;;;;;19.02;11.75;;;1.90;99.90;;;;;;5056911;28;20082;-73
2024/01/06 06:04:05;;;;;;;17.13;9.80;;;1.90;99.90;;;;;;5039005;28;20037;-72
2024/01/06 06:06:31;;;;;;;18.27;10.43;;;1.90;99.90;;;;;;5056765;28;20056;-73
2024/01/06 06:08:57;;;;;;;22.13;12.57;;;1.80;99.90;;;;;;5038686;28;20033;-73
2024/01/06 06:11:22;;;;;;;19.48;10.15;;;1.90;99.90;;;;;;5038980;28;20112;-72
2024/01/06 06:13:48;;;;;;;21.60;10.95;;;1.70;99.90;;;;;;5056898;28;20044;-71
2024/01/06 06:16:14;;;;;;;17.85;10.80;;;1.80;99.90;;;;;;5056510;28;20029;-70
2024/01/06 06:18:40;;;;;;;17.75;9.90;;;1.80;99.90;;;;;;5039697;28;20532;-71
2024/01/06 06:21:07;;;;;;;20.00;9.45;;;1.90;99.90;;;;;;5057985;28;20120;-70
2024/01/06 06:23:33;;;;;;;17.02;10.32;;;1.90;99.90;;;;;;5038785;28;20052;-70
2024/01/06 06:26:03;;;;;;;17.23;9.40;;;2.00;99.90;;;;;;5038977;28;20052;-71
2024/01/06 06:28:28;;;;;;;18.58;10.68;;;1.80;99.90;;;;;;5038294;28;20044;-70
2024/01/06 06:30:54;;;;;;;17.73;9.88;;;1.70;99.90;;;;;;5056011;28;20038;-71
2024/01/06 06:33:20;;;;;;;19.10;10.38;;;1.70;99.90;;;;;;5055789;28;20535;-70
2024/01/06 06:35:45;;;;;;;21.73;10.30;;;1.70;99.90;;;;;;5038096;28;20048;-70
2024/01/06 06:38:11;;;;;;;22.77;11.07;;;1.90;99.90;;;;;;5055862;28;20052;-70
2024/01/06 06:40:37;;;;;;;23.65;12.20;;;1.90;99.90;;;;;;5038023;28;20041;-70
2024/01/06 06:43:02;;;;;;;14.98;9.60;;;2.00;99.90;;;;;;5038957;28;20052;-70
2024/01/06 06:45:28;;;;;;;19.70;11.13;;;2.00;99.90;;;;;;5038939;28;20508;-70
2024/01/06 06:47:54;;;;;;;17.27;9.88;;;1.80;99.90;;;;;;5055868;28;20531;-70
2024/01/06 06:50:20;;;;;;;17.58;11.05;;;1.80;99.90;;;;;;5039167;28;20076;-70
2024/01/06 06:52:46;;;;;;;21.77;10.73;;;1.90;99.90;;;;;;5055784;28;20119;-70
2024/01/06 06:55:12;;;;;;;17.20;10.68;;;2.00;99.90;;;;;;5055519;28;20047;-70
2024/01/06 06:57:38;;;;;;;20.35;10.40;;;1.80;99.90;;;;;;5037402;28;20119;-70
2024/01/06 07:00:07;;;;;;;16.83;9.13;;;1.90;99.90;;;;;;5055550;28;20041;-70
2024/01/06 07:02:33;;;;;;;18.40;10.38;;;1.90;99.90;;;;;;5055590;28;20032;-70
2024/01/06 07:04:59;;;;;;;17.13;9.15;;;2.00;99.90;;;;;;5057357;28;20401;-70
2024/01/06 07:07:24;;;;;;;19.50;9.32;;;1.90;99.90;;;;;;5038047;28;20048;-70
2024/01/06 07:09:50;;;;;;;14.68;9.15;;;1.80;99.90;;;;;;5038522;28;20060;-70
2024/01/06 07:12:15;;;;;;;19.25;10.70;;;1.80;99.90;;;;;;5036047;28;20033;-70
2024/01/06 07:14:41;;;;;;;21.25;11.52;;;2.00;99.90;;;;;;5056410;28;20029;-70
2024/01/06 07:17:08;;;;;;;15.55;10.45;;;1.90;99.90;;;;;;5056646;28;20526;-71
2024/01/06 07:19:34;;;;;;;16.33;9.50;;;2.00;99.90;;;;;;5056205;28;20381;-70
2024/01/06 07:22:00;;;;;;;16.08;10.45;;;1.90;99.90;;;;;;5056496;28;20044;-70
2024/01/06 07:24:26;;;;;;;21.23;11.20;;;1.90;99.90;;;;;;5038819;28;20037;-73
2024/01/06 07:26:52;;;;;;;16.08;10.07;;;1.90;99.90;;;;;;5056346;28;20542;-73
2024/01/06 07:29:18;;;;;;;17.70;10.60;;;2.00;99.90;;;;;;5055477;28;20071;-73
2024/01/06 07:31:44;;;;;;;18.83;11.00;;;1.90;99.90;;;;;;5055589;28;20048;-73
2024/01/06 07:34:10;;;;;;;17.20;9.63;;;2.10;99.90;;;;;;5055695;28;20037;-73
2024/01/06 07:36:35;;;;;;;15.90;9.93;;;1.90;99.90;;;;;;5055912;28;20043;-72
2024/01/06 07:39:02;;;;;;;15.23;9.48;;;1.90;99.90;;;;;;5037401;28;20120;-73
2024/01/06 07:41:30;;;;;;;15.40;9.90;;;1.90;99.90;;;;;;5056449;28;20525;-73
2024/01/06 07:43:56;;;;;;;16.92;9.77;;;1.90;99.90;;;;;;5037723;28;20041;-73
2024/01/06 07:46:22;;;;;;;16.95;10.18;;;2.00;99.90;;;;;;5038895;28;20095;-73
2024/01/06 07:48:47;;;;;;;18.13;10.80;;;2.00;99.90;;;;;;5055175;28;20037;-73
2024/01/06 07:51:13;;;;;;;18.67;9.52;;;1.90;99.90;;;;;;5037313;28;20041;-73
2024/01/06 07:53:38;;;;;;;14.82;9.07;;;1.90;99.90;;;;;;5038756;28;20048;-73
2024/01/06 07:56:04;;;;;;;15.25;10.00;;;1.90;99.90;;;;;;5038590;28;20045;-73
2024/01/06 07:58:30;;;;;;;23.95;12.02;;;2.00;99.90;;;;;;5038597;28;20045;-73
2024/01/06 08:00:55;;;;;;;17.55;9.43;;;2.00;99.90;;;;;;5055430;28;20033;-72
2024/01/06 08:03:21;;;;;;;17.08;9.60;;;2.10;99.90;;;;;;5055194;28;20126;-71
2024/01/06 08:05:47;;;;;;;19.83;11.00;;;2.00;99.90;;;;;;5055657;28;20033;-71
2024/01/06 08:08:16;;;;;;;18.80;10.80;;;2.00;99.90;;;;;;5054917;28;20033;-71
2024/01/06 08:10:42;;;;;;;17.17;9.68;;;2.00;99.90;;;;;;5055553;28;20037;-71
2024/01/06 08:13:08;;;;;;;17.02;9.82;;;2.00;99.90;;;;;;5055491;28;20455;-71
2024/01/06 08:15:34;;;;;;;14.70;8.65;;;1.90;99.90;;;;;;5054707;28;20040;-73
2024/01/06 08:17:59;;;;;;;20.67;10.60;;;1.90;99.90;;;;;;5054496;28;20041;-73
2024/01/06 08:20:25;;;;;;;23.58;11.32;;;2.00;99.90;;;;;;5054538;28;20051;-73
2024/01/06 08:22:51;;;;;;;19.55;10.82;;;2.10;99.90;;;;;;5037247;28;20037;-73
2024/01/06 08:25:17;;;;;;;18.80;10.77;;;2.10;99.90;;;;;;5055162;28;20095;-73
2024/01/06 08:27:43;;;;;;;19.83;11.68;;;2.10;99.90;;;;;;5054591;28;20041;-73
2024/01/06 08:30:09;;;;;;;18.98;10.50;;;2.00;99.90;;;;;;5054890;28;20048;-73
2024/01/06 08:32:35;;;;;;;16.75;10.93;;;2.10;99.90;;;;;;5037141;28;20049;-73
2024/01/06 08:35:00;;;;;;;24.65;12.55;;;2.00;99.90;;;;;;5054839;28;20067;-73
2024/01/06 08:37:26;;;;;;;22.27;11.50;;;2.00;99.90;;;;;;5054698;28;20097;-74
2024/01/06 08:39:52;;;;;;;25.23;10.95;;;2.20;99.90;;;;;;5037683;28;20056;-73
2024/01/06 08:42:17;;;;;;;21.50;11.10;;;2.00;99.90;;;;;;5037174;28;20194;-73
2024/01/06 08:44:43;;;;;;;19.13;11.52;;;2.10;99.90;;;;;;5055330;28;20041;-73
2024/01/06 08:47:09;;;;;;;21.00;11.45;;;2.20;99.90;;;;;;5055180;28;20116;-73
2024/01/06 08:49:35;;;;;;;18.65;11.20;;;2.20;99.90;;;;;;5053741;28;20116;-73
2024/01/06 08:52:00;;;;;;;20.08;12.50;;;2.20;99.90;;;;;;5059239;28;20106;-73
2024/01/06 08:54:26;;;;;;;24.63;12.27;;;2.20;99.90;;;;;;5064969;28;20530;-74
2024/01/06 08:56:51;;;;;;;19.45;11.60;;;2.30;99.90;;;;;;5056601;28;20124;-73
2024/01/06 08:59:17;;;;;;;22.50;12.10;;;2.30;99.90;;;;;;5053707;28;20079;-73
2024/01/06 09:01:43;;;;;;;18.77;11.82;;;2.10;99.90;;;;;;5081627;22;20045;-74
2024/01/06 09:04:11;;;;;;;19.92;12.88;;;2.10;99.90;;;;;;5054276;28;20040;-74
2024/01/06 09:06:36;;;;;;;22.80;11.90;;;2.10;99.90;;;;;;5053979;28;20036;-75
2024/01/06 09:09:02;;;;;;;19.50;11.15;;;2.30;99.90;;;;;;5053789;28;20127;-74
2024/01/06 09:11:28;;;;;;;22.13;12.55;;;2.20;99.90;;;;;;5071290;28;20041;-74
2024/01/06 09:13:53;;;;;;;19.25;11.73;;;2.10;99.90;;;;;;5053830;28;20043;-75
2024/01/06 09:16:20;;;;;;;20.85;12.07;;;2.20;99.90;;;;;;5053583;28;20522;-74
2024/01/06 09:18:45;;;;;;;20.75;12.27;;;2.20;99.90;;;;;;5037204;28;20041;-75
2024/01/06 09:21:11;;;;;;;20.90;12.60;;;2.20;99.90;;;;;;5053723;28;20045;-74
2024/01/06 09:23:36;;;;;;;21.15;12.07;;;2.20;99.90;;;;;;5061760;28;20097;-75
2024/01/06 09:26:02;;;;;;;20.50;11.85;;;2.30;99.90;;;;;;5060610;28;20530;-74
2024/01/06 09:28:28;;;;;;;21.60;11.23;;;2.10;99.90;;;;;;5052476;28;20036;-75
2024/01/06 09:30:55;;;;;;;20.58;12.38;;;2.30;99.90;;;;;;5036373;28;20173;-75
2024/01/06 09:33:22;;;;;;;24.17;12.85;;;2.10;99.90;;;;;;5071017;28;20157;-75
2024/01/06 09:35:47;;;;;;;26.80;13.57;;;2.20;99.90;;;;;;5052619;28;20044;-75
2024/01/06 09:38:13;;;;;;;21.25;13.30;;;2.20;99.90;;;;;;5036256;28;20510;-75
2024/01/06 09:40:44;;;;;;;20.48;11.55;;;2.20;99.90;;;;;;5052428;28;20041;-73
2024/01/06 09:43:10;;;;;;;20.00;12.80;;;2.20;99.90;;;;;;5052870;28;20032;-73
2024/01/06 09:45:36;;;;;;;21.42;11.68;;;2.30;99.90;;;;;;5053269;28;20064;-73
2024/01/06 09:48:14;;;;;;;19.75;11.90;;;2.20;99.90;;;;;;5052959;28;20133;-73
2024/01/06 09:50:44;;;;;;;21.83;11.18;;;2.30;99.90;;;;;;5053323;28;20146;-73
2024/01/06 09:53:14;;;;;;;18.02;10.93;;;2.20;99.90;;;;;;5036515;28;20044;-73
2024/01/06 09:55:39;;;;;;;19.38;12.27;;;2.30;99.90;;;;;;5036528;28;20044;-73
2024/01/06 09:58:06;;;;;;;19.25;11.18;;;2.30;99.90;;;;;;5052937;28;20036;-73
2024/01/06 10:00:32;;;;;;;15.27;10.32;;;2.30;99.90;;;;;;5053010;28;20540;-73
2024/01/06 10:02:57;;;;;;;15.80;9.73;;;2.20;99.90;;;;;;5036664;28;20069;-73
2024/01/06 10:05:23;;;;;;;19.80;10.75;;;2.20;99.90;;;;;;5053271;28;20041;-73
2024/01/06 10:07:49;;;;;;;17.88;10.82;;;2.20;99.90;;;;;;5051869;28;20036;-73
2024/01/06 10:10:15;;;;;;;18.65;10.43;;;2.20;99.90;;;;;;5052633;28;20506;-73
2024/01/06 10:12:42;;;;;;;15.65;9.98;;;2.10;99.90;;;;;;5052688;28;20045;-73
2024/01/06 10:15:09;;;;;;;17.08;10.60;;;2.20;99.90;;;;;;5052631;28;20048;-74
2024/01/06 10:17:39;;;;;;;21.33;11.85;;;2.10;99.90;;;;;;5052114;28;20041;-73
2024/01/06 10:20:13;;;;;;;19.15;10.77;;;2.20;99.90;;;;;;5052397;28;20127;-73
2024/01/06 10:22:41;;;;;;;16.42;10.70;;;2.20;99.90;;;;;;5052117;28;20048;-73
2024/01/06 10:25:08;;;;;;;19.55;10.95;;;2.30;99.90;;;;;;5053158;28;20399;-73
2024/01/06 10:27:43;;;;;;;20.35;11.60;;;2.20;99.90;;;;;;5029937;28;20095;-73
2024/01/06 10:30:10;;;;;;;19.90;12.02;;;2.20;99.90;;;;;;5045508;28;20493;-72
2024/01/06 10:32:36;;;;;;;22.85;12.15;;;2.20;99.90;;;;;;5052994;28;20070;-73
2024/01/06 10:35:03;;;;;;;19.38;11.80;;;2.30;99.90;;;;;;5052657;28;20044;-73
2024/01/06 10:37:29;;;;;;;20.08;10.88;;;2.20;99.90;;;;;;5036025;28;20124;-74
2024/01/06 10:40:08;;;;;;;19.77;10.38;;;2.30;99.90;;;;;;5052696;28;20040;-74
2024/01/06 10:42:36;;;;;;;18.42;11.07;;;2.10;99.90;;;;;;5036157;28;20044;-74
2024/01/06 10:45:02;;;;;;;18.13;10.70;;;2.20;99.90;;;;;;5052798;28;20051;-74
2024/01/06 10:47:31;;;;;;;15.70;9.35;;;2.30;99.90;;;;;;5056217;28;20024;-74
2024/01/06 10:49:59;;;;;;;17.60;10.50;;;2.30;99.90;;;;;;5055615;28;20051;-74
2024/01/06 10:52:27;;;;;;;16.83;10.57;;;2.30;99.90;;;;;;5039179;28;20050;-74
2024/01/06 10:54:54;;;;;;;18.67;11.20;;;2.40;99.90;;;;;;5056082;28;20565;-74
2024/01/06 10:57:21;;;;;;;16.33;10.52;;;2.40;99.90;;;;;;5053041;28;20035;-74
2024/01/06 10:59:49;;;;;;;18.10;11.20;;;2.30;99.90;;;;;;5055526;28;20041;-74
2024/01/06 11:02:18;;;;;;;15.38;10.35;;;2.30;99.90;;;;;;5055431;28;20578;-74
2024/01/06 11:04:48;;;;;;;16.65;9.82;;;2.20;99.90;;;;;;5055684;28;20020;-74
2024/01/06 11:07:17;;;;;;;16.05;9.93;;;2.30;99.90;;;;;;5055544;28;20051;-73
2024/01/06 11:09:51;;;;;;;15.93;9.43;;;2.20;99.90;;;;;;5036687;28;20090;-74
2024/01/06 11:12:17;;;;;;;16.17;9.82;;;2.30;99.90;;;;;;5055562;28;20041;-73
2024/01/06 11:14:45;;;;;;;14.05;8.63;;;2.20;99.90;;;;;;5055381;28;20036;-74
2024/01/06 11:17:11;;;;;;;16.25;9.20;;;2.20;99.90;;;;;;5055348;28;20040;-74
2024/01/06 11:19:40;;;;;;;13.10;9.02;;;2.30;99.90;;;;;;5055567;28;20573;-73
2024/01/06 11:22:24;;;;;;;14.95;9.80;;;2.20;99.90;;;;;;5055999;28;20040;-73
2024/01/06 11:24:52;;;;;;;14.50;9.40;;;2.30;99.90;;;;;;5055645;28;20127;-74
2024/01/06 11:27:28;;;;;;;13.23;9.07;;;2.30;99.90;;;;;;5039226;28;20066;-74
2024/01/06 11:30:07;;;;;;;14.82;9.38;;;2.20;99.90;;;;;;5038927;28;20040;-74
2024/01/06 11:32:38;;;;;;;16.17;10.20;;;2.30;99.90;;;;;;5055425;28;20052;-74
2024/01/06 11:35:11;;;;;;;15.70;9.27;;;2.30;99.90;;;;;;5038758;28;20049;-73
2024/01/06 11:37:51;;;;;;;;;;;2.20;99.90;;;;;;5055911;28;20524;-74
2024/01/06 11:40:25;;;;;;;16.23;10.85;;;2.30;99.90;;;;;;5055626;28;19928;-74
2024/01/06 11:43:15;;;;;;;14.98;9.30;;;2.10;99.90;;;;;;5038671;28;20123;-73
2024/01/06 11:45:42;;;;;;;18.48;9.90;;;2.10;99.90;;;;;;5055530;28;20443;-74
2024/01/06 11:48:09;;;;;;;15.63;9.55;;;2.20;99.90;;;;;;5038459;28;20044;-74
2024/01/06 11:50:39;;;;;;;14.55;9.35;;;2.10;99.90;;;;;;5038613;28;20492;-73
2024/01/06 11:53:07;;;;;;;14.60;9.88;;;2.20;99.90;;;;;;5055127;28;20079;-73
2024/01/06 11:55:34;;;;;;;17.48;10.80;;;2.20;99.90;;;;;;5055296;28;20127;-74
2024/01/06 11:58:05;;;;;;;17.88;9.70;;;2.20;99.90;;;;;;5054121;28;20055;-73
2024/01/06 12:00:32;;;;;;;14.68;9.88;;;2.30;99.90;;;;;;5055071;28;20396;-73
2024/01/06 12:02:59;;;;;;;16.85;10.65;;;2.30;99.90;;;;;;5054815;28;20059;-74
2024/01/06 12:05:26;;;;;;;16.05;10.52;;;2.30;99.90;;;;;;5054940;28;20091;-73
2024/01/06 12:07:56;;;;;;;16.73;10.50;;;2.30;99.90;;;;;;5054579;28;20044;-74
2024/01/06 12:10:23;;;;;;;17.33;10.57;;;2.30;99.90;;;;;;5054439;28;20051;-74
2024/01/06 12:12:59;;;;;;;15.15;9.25;;;2.40;99.90;;;;;;5054678;28;20408;-74
2024/01/06 12:15:26;;;;;;;13.80;8.88;;;2.30;99.90;;;;;;5054791;28;20471;-74
2024/01/06 12:17:52;;;;;;;15.32;9.77;;;2.20;99.90;;;;;;5054550;28;20426;-74
2024/01/06 12:20:18;;;;;;;14.10;9.38;;;2.20;99.90;;;;;;5054747;28;20040;-74
2024/01/06 12:22:44;;;;;;;14.95;9.70;;;2.20;99.90;;;;;;5054848;28;20032;-74
2024/01/06 12:25:10;;;;;;;15.80;9.60;;;2.20;99.90;;;;;;5054593;28;20040;-74
2024/01/06 12:27:35;;;;;;;13.60;8.48;;;2.10;99.90;;;;;;5054066;28;20054;-74
2024/01/06 12:30:02;;;;;;;15.05;9.23;;;2.20;99.90;;;;;;5054323;28;20048;-74
2024/01/06 12:32:28;;;;;;;13.30;8.65;;;2.20;99.90;;;;;;5054349;28;20094;-74
2024/01/06 12:34:55;;;;;;;13.55;8.60;;;2.20;99.90;;;;;;5037966;28;20044;-74
2024/01/06 12:37:23;;;;;;;12.82;8.20;;;2.20;99.90;;;;;;5054205;28;20044;-74